sensor_id;sensor_type;location;lat;lon;timestamp;P1;durP1;ratioP1;P2;durP2;ratioP2
920;SDS011;447;51.332;6.778;2023-04-24T00:01:00;1.23;;;0.90;;
920;SDS011;447;51.332;6.778;2023-04-24T00:03:27;1.30;;;1.13;;
920;SDS011;447;51.332;6.778;2023-04-24T00:05:56;1.20;;;1.10;;
920;SDS011;447;51.332;6.778;2023-04-24T00:08:22;1.17;;;1.07;;
920;SDS011;447;51.332;6.778;2023-04-24T00:10:49;2.50;;;1.23;;
920;SDS011;447;51.332;6.778;2023-04-24T00:13:14;1.43;;;1.20;;
920;SDS011;447;51.332;6.778;2023-04-24T00:15:40;3.13;;;1.40;;
920;SDS011;447;51.332;6.778;2023-04-24T00:18:08;2.97;;;1.20;;
920;SDS011;447;51.332;6.778;2023-04-24T00:20:37;1.20;;;1.10;;
920;SDS011;447;51.332;6.778;2023-04-24T00:23:07;1.30;;;1.07;;
920;SDS011;447;51.332;6.778;2023-04-24T00:25:33;6.23;;;1.40;;
920;SDS011;447;51.332;6.778;2023-04-24T00:27:59;1.23;;;1.07;;
920;SDS011;447;51.332;6.778;2023-04-24T00:30:25;1.13;;;1.03;;
920;SDS011;447;51.332;6.778;2023-04-24T00:32:51;1.57;;;1.37;;
920;SDS011;447;51.332;6.778;2023-04-24T00:35:20;1.27;;;1.00;;
920;SDS011;447;51.332;6.778;2023-04-24T00:37:49;1.83;;;1.40;;
920;SDS011;447;51.332;6.778;2023-04-24T00:40:17;2.13;;;1.50;;
920;SDS011;447;51.332;6.778;2023-04-24T00:42:43;1.30;;;1.20;;
920;SDS011;447;51.332;6.778;2023-04-24T00:45:12;1.30;;;1.20;;
920;SDS011;447;51.332;6.778;2023-04-24T00:47:39;1.50;;;1.40;;
920;SDS011;447;51.332;6.778;2023-04-24T00:50:07;2.90;;;1.30;;
920;SDS011;447;51.332;6.778;2023-04-24T00:52:33;1.40;;;1.20;;
920;SDS011;447;51.332;6.778;2023-04-24T00:54:59;2.17;;;1.50;;
920;SDS011;447;51.332;6.778;2023-04-24T00:57:26;3.43;;;1.70;;
920;SDS011;447;51.332;6.778;2023-04-24T00:59:54;1.90;;;1.30;;
920;SDS011;447;51.332;6.778;2023-04-24T01:02:21;2.10;;;1.43;;
920;SDS011;447;51.332;6.778;2023-04-24T01:04:52;4.13;;;1.17;;
920;SDS011;447;51.332;6.778;2023-04-24T01:07:21;1.50;;;1.40;;
920;SDS011;447;51.332;6.778;2023-04-24T01:09:50;1.40;;;1.30;;
920;SDS011;447;51.332;6.778;2023-04-24T01:12:17;2.30;;;1.70;;
920;SDS011;447;51.332;6.778;2023-04-24T01:14:46;2.00;;;1.70;;
920;SDS011;447;51.332;6.778;2023-04-24T01:17:16;2.30;;;2.10;;
920;SDS011;447;51.332;6.778;2023-04-24T01:19:46;2.23;;;2.03;;
920;SDS011;447;51.332;6.778;2023-04-24T01:22:15;3.00;;;1.80;;
920;SDS011;447;51.332;6.778;2023-04-24T01:24:43;1.70;;;1.60;;
920;SDS011;447;51.332;6.778;2023-04-24T01:27:11;2.23;;;2.00;;
920;SDS011;447;51.332;6.778;2023-04-24T01:29:40;2.80;;;2.20;;
920;SDS011;447;51.332;6.778;2023-04-24T01:32:08;3.07;;;2.27;;
920;SDS011;447;51.332;6.778;2023-04-24T01:34:37;2.90;;;2.00;;
920;SDS011;447;51.332;6.778;2023-04-24T01:37:03;3.73;;;1.77;;
920;SDS011;447;51.332;6.778;2023-04-24T01:39:31;2.50;;;2.23;;
920;SDS011;447;51.332;6.778;2023-04-24T01:42:00;2.30;;;2.10;;
920;SDS011;447;51.332;6.778;2023-04-24T01:44:27;2.80;;;2.03;;
920;SDS011;447;51.332;6.778;2023-04-24T01:46:54;3.30;;;2.47;;
920;SDS011;447;51.332;6.778;2023-04-24T01:49:20;2.53;;;2.10;;
920;SDS011;447;51.332;6.778;2023-04-24T01:51:46;2.53;;;2.30;;
920;SDS011;447;51.332;6.778;2023-04-24T01:54:12;2.87;;;2.57;;
920;SDS011;447;51.332;6.778;2023-04-24T01:56:42;4.40;;;2.60;;
920;SDS011;447;51.332;6.778;2023-04-24T01:59:09;2.50;;;2.30;;
920;SDS011;447;51.332;6.778;2023-04-24T02:01:38;4.53;;;2.87;;
920;SDS011;447;51.332;6.778;2023-04-24T02:04:05;4.03;;;2.90;;
920;SDS011;447;51.332;6.778;2023-04-24T02:06:34;5.30;;;2.77;;
920;SDS011;447;51.332;6.778;2023-04-24T02:09:00;3.43;;;2.90;;
920;SDS011;447;51.332;6.778;2023-04-24T02:11:30;4.27;;;3.27;;
920;SDS011;447;51.332;6.778;2023-04-24T02:13:56;4.40;;;3.60;;
920;SDS011;447;51.332;6.778;2023-04-24T02:16:25;3.30;;;3.00;;
920;SDS011;447;51.332;6.778;2023-04-24T02:18:57;3.57;;;3.27;;
920;SDS011;447;51.332;6.778;2023-04-24T02:21:23;4.03;;;3.57;;
920;SDS011;447;51.332;6.778;2023-04-24T02:23:52;6.83;;;3.27;;
920;SDS011;447;51.332;6.778;2023-04-24T02:26:21;5.30;;;3.70;;
920;SDS011;447;51.332;6.778;2023-04-24T02:28:47;8.40;;;4.17;;
920;SDS011;447;51.332;6.778;2023-04-24T02:31:13;6.60;;;3.70;;
920;SDS011;447;51.332;6.778;2023-04-24T02:33:42;4.90;;;4.40;;
920;SDS011;447;51.332;6.778;2023-04-24T02:36:08;3.57;;;3.27;;
920;SDS011;447;51.332;6.778;2023-04-24T02:38:34;4.60;;;4.20;;
920;SDS011;447;51.332;6.778;2023-04-24T02:41:04;5.27;;;4.17;;
920;SDS011;447;51.332;6.778;2023-04-24T02:43:35;5.37;;;3.67;;
920;SDS011;447;51.332;6.778;2023-04-24T02:46:01;7.37;;;4.90;;
920;SDS011;447;51.332;6.778;2023-04-24T02:48:29;5.87;;;5.27;;
920;SDS011;447;51.332;6.778;2023-04-24T02:50:55;8.17;;;4.83;;
920;SDS011;447;51.332;6.778;2023-04-24T02:53:24;5.27;;;4.77;;
920;SDS011;447;51.332;6.778;2023-04-24T02:55:52;7.70;;;4.90;;
920;SDS011;447;51.332;6.778;2023-04-24T02:58:19;5.50;;;5.00;;
920;SDS011;447;51.332;6.778;2023-04-24T03:00:45;8.23;;;5.77;;
920;SDS011;447;51.332;6.778;2023-04-24T03:03:17;9.73;;;5.57;;
920;SDS011;447;51.332;6.778;2023-04-24T03:05:43;6.00;;;5.13;;
920;SDS011;447;51.332;6.778;2023-04-24T03:08:09;6.10;;;5.00;;
920;SDS011;447;51.332;6.778;2023-04-24T03:10:35;8.03;;;5.43;;
920;SDS011;447;51.332;6.778;2023-04-24T03:13:01;8.53;;;5.30;;
920;SDS011;447;51.332;6.778;2023-04-24T03:15:29;6.03;;;5.13;;
920;SDS011;447;51.332;6.778;2023-04-24T03:17:55;7.50;;;5.63;;
920;SDS011;447;51.332;6.778;2023-04-24T03:20:23;6.10;;;5.33;;
920;SDS011;447;51.332;6.778;2023-04-24T03:22:50;7.03;;;6.30;;
920;SDS011;447;51.332;6.778;2023-04-24T03:25:16;8.77;;;5.50;;
920;SDS011;447;51.332;6.778;2023-04-24T03:27:48;6.87;;;5.87;;
920;SDS011;447;51.332;6.778;2023-04-24T03:30:42;8.73;;;6.17;;
920;SDS011;447;51.332;6.778;2023-04-24T03:33:09;8.00;;;6.20;;
920;SDS011;447;51.332;6.778;2023-04-24T03:35:42;8.90;;;6.17;;
920;SDS011;447;51.332;6.778;2023-04-24T03:38:14;8.20;;;5.87;;
920;SDS011;447;51.332;6.778;2023-04-24T03:40:40;7.43;;;5.70;;
920;SDS011;447;51.332;6.778;2023-04-24T03:43:35;8.00;;;5.43;;
920;SDS011;447;51.332;6.778;2023-04-24T03:46:01;8.90;;;5.90;;
920;SDS011;447;51.332;6.778;2023-04-24T03:48:37;7.80;;;5.23;;
920;SDS011;447;51.332;6.778;2023-04-24T03:51:10;8.17;;;6.20;;
920;SDS011;447;51.332;6.778;2023-04-24T03:53:38;8.67;;;6.23;;
920;SDS011;447;51.332;6.778;2023-04-24T03:56:05;7.23;;;5.70;;
920;SDS011;447;51.332;6.778;2023-04-24T03:58:34;8.93;;;5.83;;
920;SDS011;447;51.332;6.778;2023-04-24T04:00:59;9.17;;;6.00;;
920;SDS011;447;51.332;6.778;2023-04-24T04:03:58;7.67;;;5.70;;
920;SDS011;447;51.332;6.778;2023-04-24T04:06:26;7.97;;;5.47;;
920;SDS011;447;51.332;6.778;2023-04-24T04:08:55;7.50;;;5.67;;
920;SDS011;447;51.332;6.778;2023-04-24T04:11:23;8.50;;;6.13;;
920;SDS011;447;51.332;6.778;2023-04-24T04:13:49;8.00;;;5.70;;
920;SDS011;447;51.332;6.778;2023-04-24T04:16:21;6.80;;;6.07;;
920;SDS011;447;51.332;6.778;2023-04-24T04:18:51;8.30;;;6.20;;
920;SDS011;447;51.332;6.778;2023-04-24T04:21:17;8.10;;;6.50;;
920;SDS011;447;51.332;6.778;2023-04-24T04:23:48;9.43;;;6.43;;
920;SDS011;447;51.332;6.778;2023-04-24T04:26:26;6.80;;;6.10;;
920;SDS011;447;51.332;6.778;2023-04-24T04:29:04;7.80;;;6.03;;
920;SDS011;447;51.332;6.778;2023-04-24T04:31:33;9.07;;;6.67;;
920;SDS011;447;51.332;6.778;2023-04-24T04:34:04;8.83;;;5.63;;
920;SDS011;447;51.332;6.778;2023-04-24T04:36:32;6.23;;;5.60;;
920;SDS011;447;51.332;6.778;2023-04-24T04:39:12;7.07;;;5.67;;
920;SDS011;447;51.332;6.778;2023-04-24T04:41:53;7.67;;;5.80;;
920;SDS011;447;51.332;6.778;2023-04-24T04:44:25;6.80;;;5.00;;
920;SDS011;447;51.332;6.778;2023-04-24T04:46:57;9.47;;;5.50;;
920;SDS011;447;51.332;6.778;2023-04-24T04:49:29;7.67;;;5.17;;
920;SDS011;447;51.332;6.778;2023-04-24T04:51:56;7.97;;;5.70;;
920;SDS011;447;51.332;6.778;2023-04-24T04:54:24;9.33;;;6.27;;
920;SDS011;447;51.332;6.778;2023-04-24T04:56:53;8.67;;;5.87;;
920;SDS011;447;51.332;6.778;2023-04-24T04:59:22;5.83;;;5.20;;
920;SDS011;447;51.332;6.778;2023-04-24T05:01:52;8.67;;;5.17;;
920;SDS011;447;51.332;6.778;2023-04-24T05:04:23;5.97;;;5.00;;
920;SDS011;447;51.332;6.778;2023-04-24T05:06:53;5.63;;;4.80;;
920;SDS011;447;51.332;6.778;2023-04-24T05:09:21;5.30;;;4.80;;
920;SDS011;447;51.332;6.778;2023-04-24T05:11:52;6.13;;;5.40;;
920;SDS011;447;51.332;6.778;2023-04-24T05:14:22;7.50;;;5.93;;
920;SDS011;447;51.332;6.778;2023-04-24T05:16:52;9.73;;;5.87;;
920;SDS011;447;51.332;6.778;2023-04-24T05:19:20;6.90;;;5.60;;
920;SDS011;447;51.332;6.778;2023-04-24T05:21:46;7.47;;;5.60;;
920;SDS011;447;51.332;6.778;2023-04-24T05:24:12;5.90;;;5.27;;
920;SDS011;447;51.332;6.778;2023-04-24T05:26:47;8.67;;;5.93;;
920;SDS011;447;51.332;6.778;2023-04-24T05:29:18;6.53;;;5.00;;
920;SDS011;447;51.332;6.778;2023-04-24T05:31:44;6.10;;;5.30;;
920;SDS011;447;51.332;6.778;2023-04-24T05:34:10;6.30;;;5.03;;
920;SDS011;447;51.332;6.778;2023-04-24T05:36:39;6.60;;;5.27;;
920;SDS011;447;51.332;6.778;2023-04-24T05:39:05;6.17;;;5.57;;
920;SDS011;447;51.332;6.778;2023-04-24T05:41:34;5.30;;;4.47;;
920;SDS011;447;51.332;6.778;2023-04-24T05:44:00;6.50;;;5.90;;
920;SDS011;447;51.332;6.778;2023-04-24T05:46:26;6.57;;;5.40;;
920;SDS011;447;51.332;6.778;2023-04-24T05:48:55;5.97;;;5.37;;
920;SDS011;447;51.332;6.778;2023-04-24T05:51:23;5.90;;;4.63;;
920;SDS011;447;51.332;6.778;2023-04-24T05:53:49;6.07;;;5.47;;
920;SDS011;447;51.332;6.778;2023-04-24T05:56:15;6.33;;;5.10;;
920;SDS011;447;51.332;6.778;2023-04-24T05:58:41;6.47;;;5.20;;
920;SDS011;447;51.332;6.778;2023-04-24T06:01:08;7.30;;;5.50;;
920;SDS011;447;51.332;6.778;2023-04-24T06:03:35;7.50;;;5.90;;
920;SDS011;447;51.332;6.778;2023-04-24T06:06:03;6.13;;;5.53;;
920;SDS011;447;51.332;6.778;2023-04-24T06:08:32;7.13;;;5.40;;
920;SDS011;447;51.332;6.778;2023-04-24T06:11:00;6.03;;;5.30;;
920;SDS011;447;51.332;6.778;2023-04-24T06:13:29;6.30;;;4.87;;
920;SDS011;447;51.332;6.778;2023-04-24T06:16:15;9.53;;;5.70;;
920;SDS011;447;51.332;6.778;2023-04-24T06:18:51;6.40;;;5.27;;
920;SDS011;447;51.332;6.778;2023-04-24T06:21:17;5.63;;;4.87;;
920;SDS011;447;51.332;6.778;2023-04-24T06:23:45;6.40;;;4.60;;
920;SDS011;447;51.332;6.778;2023-04-24T06:26:13;6.40;;;4.97;;
920;SDS011;447;51.332;6.778;2023-04-24T06:28:39;5.30;;;4.80;;
920;SDS011;447;51.332;6.778;2023-04-24T06:31:05;5.70;;;5.10;;
920;SDS011;447;51.332;6.778;2023-04-24T06:33:33;6.80;;;4.40;;
920;SDS011;447;51.332;6.778;2023-04-24T06:35:59;5.87;;;5.00;;
920;SDS011;447;51.332;6.778;2023-04-24T06:38:25;6.60;;;5.27;;
920;SDS011;447;51.332;6.778;2023-04-24T06:40:51;5.00;;;4.50;;
920;SDS011;447;51.332;6.778;2023-04-24T06:43:19;5.77;;;4.40;;
920;SDS011;447;51.332;6.778;2023-04-24T06:45:48;5.40;;;4.10;;
920;SDS011;447;51.332;6.778;2023-04-24T06:48:14;6.47;;;3.90;;
920;SDS011;447;51.332;6.778;2023-04-24T06:50:42;6.33;;;4.13;;
920;SDS011;447;51.332;6.778;2023-04-24T06:53:10;5.87;;;3.90;;
920;SDS011;447;51.332;6.778;2023-04-24T06:55:37;4.20;;;3.90;;
920;SDS011;447;51.332;6.778;2023-04-24T06:58:16;4.17;;;3.73;;
920;SDS011;447;51.332;6.778;2023-04-24T07:00:53;3.57;;;3.27;;
920;SDS011;447;51.332;6.778;2023-04-24T07:06:19;4.10;;;3.20;;
920;SDS011;447;51.332;6.778;2023-04-24T07:16:11;3.23;;;2.90;;
920;SDS011;447;51.332;6.778;2023-04-24T07:18:38;3.23;;;2.80;;
920;SDS011;447;51.332;6.778;2023-04-24T07:21:04;4.43;;;2.67;;
920;SDS011;447;51.332;6.778;2023-04-24T07:23:35;2.90;;;2.60;;
920;SDS011;447;51.332;6.778;2023-04-24T07:26:03;2.87;;;1.90;;
920;SDS011;447;51.332;6.778;2023-04-24T07:28:36;3.00;;;1.90;;
920;SDS011;447;51.332;6.778;2023-04-24T07:31:05;1.63;;;1.50;;
920;SDS011;447;51.332;6.778;2023-04-24T07:33:33;1.93;;;1.70;;
920;SDS011;447;51.332;6.778;2023-04-24T07:35:59;1.53;;;1.27;;
920;SDS011;447;51.332;6.778;2023-04-24T07:38:25;1.40;;;1.30;;
920;SDS011;447;51.332;6.778;2023-04-24T07:40:53;3.77;;;1.37;;
920;SDS011;447;51.332;6.778;2023-04-24T07:43:20;1.97;;;1.70;;
920;SDS011;447;51.332;6.778;2023-04-24T07:45:52;1.70;;;1.40;;
920;SDS011;447;51.332;6.778;2023-04-24T07:48:18;1.53;;;1.43;;
920;SDS011;447;51.332;6.778;2023-04-24T07:50:47;1.83;;;1.23;;
920;SDS011;447;51.332;6.778;2023-04-24T07:53:13;1.50;;;1.40;;
920;SDS011;447;51.332;6.778;2023-04-24T07:55:39;1.30;;;1.20;;
920;SDS011;447;51.332;6.778;2023-04-24T07:58:09;1.50;;;1.40;;
920;SDS011;447;51.332;6.778;2023-04-24T08:00:35;1.97;;;1.80;;
920;SDS011;447;51.332;6.778;2023-04-24T08:03:01;1.43;;;1.30;;
920;SDS011;447;51.332;6.778;2023-04-24T08:05:29;2.53;;;1.40;;
920;SDS011;447;51.332;6.778;2023-04-24T08:07:58;2.20;;;1.70;;
920;SDS011;447;51.332;6.778;2023-04-24T08:10:24;2.33;;;1.50;;
920;SDS011;447;51.332;6.778;2023-04-24T08:12:51;1.57;;;1.47;;
920;SDS011;447;51.332;6.778;2023-04-24T08:15:17;1.30;;;1.20;;
920;SDS011;447;51.332;6.778;2023-04-24T08:17:47;1.37;;;1.27;;
920;SDS011;447;51.332;6.778;2023-04-24T08:20:13;1.50;;;1.40;;
920;SDS011;447;51.332;6.778;2023-04-24T08:22:40;1.77;;;1.67;;
920;SDS011;447;51.332;6.778;2023-04-24T08:25:06;1.33;;;1.23;;
920;SDS011;447;51.332;6.778;2023-04-24T08:27:33;1.40;;;1.20;;
920;SDS011;447;51.332;6.778;2023-04-24T08:30:02;1.77;;;1.23;;
920;SDS011;447;51.332;6.778;2023-04-24T08:32:30;1.30;;;1.20;;
920;SDS011;447;51.332;6.778;2023-04-24T08:34:56;1.33;;;1.23;;
920;SDS011;447;51.332;6.778;2023-04-24T08:37:27;1.53;;;1.43;;
920;SDS011;447;51.332;6.778;2023-04-24T08:39:53;1.67;;;1.57;;
920;SDS011;447;51.332;6.778;2023-04-24T08:42:20;1.50;;;1.40;;
920;SDS011;447;51.332;6.778;2023-04-24T08:44:46;1.10;;;1.00;;
920;SDS011;447;51.332;6.778;2023-04-24T08:47:14;1.53;;;1.30;;
920;SDS011;447;51.332;6.778;2023-04-24T08:49:41;1.40;;;1.30;;
920;SDS011;447;51.332;6.778;2023-04-24T08:52:10;1.30;;;1.20;;
920;SDS011;447;51.332;6.778;2023-04-24T08:54:38;1.30;;;1.20;;
920;SDS011;447;51.332;6.778;2023-04-24T08:57:05;1.30;;;1.20;;
920;SDS011;447;51.332;6.778;2023-04-24T08:59:36;1.83;;;1.40;;
920;SDS011;447;51.332;6.778;2023-04-24T09:02:03;1.40;;;1.30;;
920;SDS011;447;51.332;6.778;2023-04-24T09:04:30;2.10;;;1.40;;
920;SDS011;447;51.332;6.778;2023-04-24T09:06:58;2.93;;;1.73;;
920;SDS011;447;51.332;6.778;2023-04-24T09:09:25;2.10;;;1.47;;
920;SDS011;447;51.332;6.778;2023-04-24T09:11:51;2.13;;;1.30;;
920;SDS011;447;51.332;6.778;2023-04-24T09:14:20;2.30;;;1.70;;
920;SDS011;447;51.332;6.778;2023-04-24T09:17:09;2.73;;;1.80;;
920;SDS011;447;51.332;6.778;2023-04-24T09:19:38;4.30;;;2.70;;
920;SDS011;447;51.332;6.778;2023-04-24T09:22:06;3.03;;;2.40;;
920;SDS011;447;51.332;6.778;2023-04-24T09:24:35;3.70;;;2.03;;
920;SDS011;447;51.332;6.778;2023-04-24T09:27:04;2.70;;;2.20;;
920;SDS011;447;51.332;6.778;2023-04-24T09:29:30;3.27;;;2.70;;
920;SDS011;447;51.332;6.778;2023-04-24T09:31:58;3.37;;;2.63;;
920;SDS011;447;51.332;6.778;2023-04-24T09:34:25;3.47;;;3.17;;
920;SDS011;447;51.332;6.778;2023-04-24T09:36:52;3.20;;;2.90;;
920;SDS011;447;51.332;6.778;2023-04-24T09:39:19;3.00;;;2.70;;
920;SDS011;447;51.332;6.778;2023-04-24T09:41:46;4.57;;;3.17;;
920;SDS011;447;51.332;6.778;2023-04-24T09:44:13;5.80;;;3.50;;
920;SDS011;447;51.332;6.778;2023-04-24T09:46:44;4.40;;;2.77;;
920;SDS011;447;51.332;6.778;2023-04-24T09:49:14;3.90;;;3.27;;
920;SDS011;447;51.332;6.778;2023-04-24T09:51:41;4.43;;;3.40;;
920;SDS011;447;51.332;6.778;2023-04-24T09:54:17;4.97;;;3.50;;
920;SDS011;447;51.332;6.778;2023-04-24T09:56:49;3.93;;;3.40;;
920;SDS011;447;51.332;6.778;2023-04-24T09:59:16;4.40;;;3.40;;
920;SDS011;447;51.332;6.778;2023-04-24T10:01:43;4.17;;;3.57;;
920;SDS011;447;51.332;6.778;2023-04-24T10:04:20;6.13;;;3.83;;
920;SDS011;447;51.332;6.778;2023-04-24T10:06:48;4.23;;;3.83;;
920;SDS011;447;51.332;6.778;2023-04-24T10:09:16;4.47;;;3.60;;
920;SDS011;447;51.332;6.778;2023-04-24T10:11:45;4.77;;;3.03;;
920;SDS011;447;51.332;6.778;2023-04-24T10:14:15;4.67;;;3.73;;
920;SDS011;447;51.332;6.778;2023-04-24T10:16:49;5.60;;;3.50;;
920;SDS011;447;51.332;6.778;2023-04-24T10:19:24;6.80;;;3.60;;
920;SDS011;447;51.332;6.778;2023-04-24T10:21:51;7.57;;;3.50;;
920;SDS011;447;51.332;6.778;2023-04-24T10:24:19;4.87;;;3.97;;
920;SDS011;447;51.332;6.778;2023-04-24T10:26:50;4.03;;;3.73;;
920;SDS011;447;51.332;6.778;2023-04-24T10:29:17;6.23;;;3.50;;
920;SDS011;447;51.332;6.778;2023-04-24T10:31:47;6.40;;;3.67;;
920;SDS011;447;51.332;6.778;2023-04-24T10:34:14;6.53;;;3.67;;
920;SDS011;447;51.332;6.778;2023-04-24T10:36:46;7.10;;;3.30;;
920;SDS011;447;51.332;6.778;2023-04-24T10:39:18;5.40;;;3.63;;
920;SDS011;447;51.332;6.778;2023-04-24T10:41:48;4.10;;;3.03;;
920;SDS011;447;51.332;6.778;2023-04-24T10:44:15;6.30;;;4.20;;
920;SDS011;447;51.332;6.778;2023-04-24T10:46:45;6.80;;;3.57;;
920;SDS011;447;51.332;6.778;2023-04-24T10:49:17;6.40;;;3.47;;
920;SDS011;447;51.332;6.778;2023-04-24T10:51:54;5.67;;;3.20;;
920;SDS011;447;51.332;6.778;2023-04-24T10:54:27;4.80;;;3.30;;
920;SDS011;447;51.332;6.778;2023-04-24T10:59:44;7.87;;;4.17;;
920;SDS011;447;51.332;6.778;2023-04-24T11:02:14;5.73;;;3.43;;
920;SDS011;447;51.332;6.778;2023-04-24T11:04:41;4.93;;;3.20;;
920;SDS011;447;51.332;6.778;2023-04-24T11:07:10;5.07;;;3.10;;
920;SDS011;447;51.332;6.778;2023-04-24T11:09:37;8.03;;;3.40;;
920;SDS011;447;51.332;6.778;2023-04-24T11:12:11;5.53;;;3.47;;
920;SDS011;447;51.332;6.778;2023-04-24T11:20:03;6.10;;;3.70;;
920;SDS011;447;51.332;6.778;2023-04-24T11:22:33;7.00;;;3.80;;
920;SDS011;447;51.332;6.778;2023-04-24T11:25:01;7.00;;;4.00;;
920;SDS011;447;51.332;6.778;2023-04-24T11:27:31;6.30;;;4.17;;
920;SDS011;447;51.332;6.778;2023-04-24T11:30:04;9.30;;;4.70;;
920;SDS011;447;51.332;6.778;2023-04-24T11:37:37;6.40;;;3.63;;
920;SDS011;447;51.332;6.778;2023-04-24T11:40:08;8.03;;;3.53;;
920;SDS011;447;51.332;6.778;2023-04-24T11:42:36;5.00;;;3.40;;
920;SDS011;447;51.332;6.778;2023-04-24T11:45:07;6.17;;;3.30;;
920;SDS011;447;51.332;6.778;2023-04-24T11:47:35;6.13;;;3.60;;
920;SDS011;447;51.332;6.778;2023-04-24T11:50:01;6.77;;;3.20;;
920;SDS011;447;51.332;6.778;2023-04-24T11:52:32;3.60;;;3.00;;
920;SDS011;447;51.332;6.778;2023-04-24T11:55:02;7.00;;;3.33;;
920;SDS011;447;51.332;6.778;2023-04-24T11:57:31;5.67;;;3.40;;
920;SDS011;447;51.332;6.778;2023-04-24T12:00:02;4.37;;;3.30;;
920;SDS011;447;51.332;6.778;2023-04-24T12:02:41;7.33;;;3.73;;
920;SDS011;447;51.332;6.778;2023-04-24T12:05:26;5.60;;;3.37;;
920;SDS011;447;51.332;6.778;2023-04-24T12:07:55;6.43;;;3.37;;
920;SDS011;447;51.332;6.778;2023-04-24T12:10:21;6.83;;;2.97;;
920;SDS011;447;51.332;6.778;2023-04-24T12:12:51;4.57;;;3.10;;
920;SDS011;447;51.332;6.778;2023-04-24T12:15:18;5.73;;;3.27;;
920;SDS011;447;51.332;6.778;2023-04-24T12:17:45;5.23;;;4.23;;
920;SDS011;447;51.332;6.778;2023-04-24T12:20:11;5.40;;;3.17;;
920;SDS011;447;51.332;6.778;2023-04-24T12:22:45;9.90;;;3.80;;
920;SDS011;447;51.332;6.778;2023-04-24T12:25:11;6.40;;;2.70;;
920;SDS011;447;51.332;6.778;2023-04-24T12:27:38;5.47;;;3.70;;
920;SDS011;447;51.332;6.778;2023-04-24T12:30:04;5.10;;;2.77;;
920;SDS011;447;51.332;6.778;2023-04-24T12:32:34;5.70;;;2.73;;
920;SDS011;447;51.332;6.778;2023-04-24T12:35:10;4.23;;;2.97;;
920;SDS011;447;51.332;6.778;2023-04-24T12:37:36;4.07;;;2.80;;
920;SDS011;447;51.332;6.778;2023-04-24T12:40:06;6.83;;;2.90;;
920;SDS011;447;51.332;6.778;2023-04-24T12:42:33;4.23;;;2.60;;
920;SDS011;447;51.332;6.778;2023-04-24T12:45:04;8.20;;;2.67;;
920;SDS011;447;51.332;6.778;2023-04-24T12:47:32;6.67;;;3.17;;
920;SDS011;447;51.332;6.778;2023-04-24T12:49:59;4.63;;;2.80;;
920;SDS011;447;51.332;6.778;2023-04-24T12:52:26;3.97;;;2.50;;
920;SDS011;447;51.332;6.778;2023-04-24T12:54:54;4.77;;;2.73;;
920;SDS011;447;51.332;6.778;2023-04-24T12:57:22;2.40;;;2.10;;
920;SDS011;447;51.332;6.778;2023-04-24T12:59:53;3.23;;;2.40;;
920;SDS011;447;51.332;6.778;2023-04-24T13:02:34;5.37;;;2.07;;
920;SDS011;447;51.332;6.778;2023-04-24T13:05:19;2.30;;;2.10;;
920;SDS011;447;51.332;6.778;2023-04-24T13:18:09;5.30;;;2.63;;
920;SDS011;447;51.332;6.778;2023-04-24T13:21:22;3.73;;;2.13;;
920;SDS011;447;51.332;6.778;2023-04-24T13:27:07;9.27;;;2.27;;
920;SDS011;447;51.332;6.778;2023-04-24T13:29:32;3.10;;;1.70;;
920;SDS011;447;51.332;6.778;2023-04-24T13:31:58;4.63;;;2.27;;
920;SDS011;447;51.332;6.778;2023-04-24T13:34:25;2.70;;;2.23;;
920;SDS011;447;51.332;6.778;2023-04-24T13:36:55;3.20;;;2.10;;
920;SDS011;447;51.332;6.778;2023-04-24T13:39:22;5.37;;;1.90;;
920;SDS011;447;51.332;6.778;2023-04-24T13:41:48;6.63;;;2.13;;
920;SDS011;447;51.332;6.778;2023-04-24T13:44:17;3.60;;;2.00;;
920;SDS011;447;51.332;6.778;2023-04-24T13:46:48;5.93;;;2.30;;
920;SDS011;447;51.332;6.778;2023-04-24T13:49:16;3.70;;;1.97;;
920;SDS011;447;51.332;6.778;2023-04-24T13:51:43;2.60;;;2.00;;
920;SDS011;447;51.332;6.778;2023-04-24T13:54:09;2.23;;;1.67;;
920;SDS011;447;51.332;6.778;2023-04-24T13:56:38;3.20;;;1.83;;
920;SDS011;447;51.332;6.778;2023-04-24T13:59:08;4.80;;;1.70;;
920;SDS011;447;51.332;6.778;2023-04-24T14:01:34;3.20;;;1.53;;
920;SDS011;447;51.332;6.778;2023-04-24T14:04:03;6.50;;;2.00;;
920;SDS011;447;51.332;6.778;2023-04-24T14:06:29;1.87;;;1.77;;
920;SDS011;447;51.332;6.778;2023-04-24T14:09:01;3.30;;;2.07;;
920;SDS011;447;51.332;6.778;2023-04-24T14:11:27;2.50;;;1.47;;
920;SDS011;447;51.332;6.778;2023-04-24T14:13:54;2.73;;;1.60;;
920;SDS011;447;51.332;6.778;2023-04-24T14:16:23;1.87;;;1.40;;
920;SDS011;447;51.332;6.778;2023-04-24T14:18:52;2.17;;;1.33;;
920;SDS011;447;51.332;6.778;2023-04-24T14:21:18;1.80;;;1.37;;
920;SDS011;447;51.332;6.778;2023-04-24T14:23:43;1.37;;;1.27;;
920;SDS011;447;51.332;6.778;2023-04-24T14:26:10;1.50;;;1.40;;
920;SDS011;447;51.332;6.778;2023-04-24T14:28:38;2.07;;;1.43;;
920;SDS011;447;51.332;6.778;2023-04-24T14:31:07;5.20;;;1.73;;
920;SDS011;447;51.332;6.778;2023-04-24T14:33:34;1.90;;;1.43;;
920;SDS011;447;51.332;6.778;2023-04-24T14:36:00;1.67;;;1.53;;
920;SDS011;447;51.332;6.778;2023-04-24T14:38:27;3.40;;;1.40;;
920;SDS011;447;51.332;6.778;2023-04-24T14:40:54;2.03;;;1.43;;
920;SDS011;447;51.332;6.778;2023-04-24T14:43:26;2.07;;;1.30;;
920;SDS011;447;51.332;6.778;2023-04-24T14:45:52;4.40;;;1.57;;
920;SDS011;447;51.332;6.778;2023-04-24T14:48:18;1.60;;;1.50;;
920;SDS011;447;51.332;6.778;2023-04-24T14:50:46;1.83;;;1.50;;
920;SDS011;447;51.332;6.778;2023-04-24T14:53:12;1.80;;;1.70;;
920;SDS011;447;51.332;6.778;2023-04-24T14:55:38;2.47;;;1.33;;
920;SDS011;447;51.332;6.778;2023-04-24T14:58:04;1.63;;;1.37;;
920;SDS011;447;51.332;6.778;2023-04-24T15:00:30;3.90;;;1.80;;
920;SDS011;447;51.332;6.778;2023-04-24T15:02:56;4.47;;;1.27;;
920;SDS011;447;51.332;6.778;2023-04-24T15:05:22;2.03;;;1.77;;
920;SDS011;447;51.332;6.778;2023-04-24T15:07:50;4.57;;;1.97;;
920;SDS011;447;51.332;6.778;2023-04-24T15:10:18;2.60;;;1.60;;
920;SDS011;447;51.332;6.778;2023-04-24T15:12:47;2.13;;;1.40;;
920;SDS011;447;51.332;6.778;2023-04-24T15:15:13;3.30;;;1.50;;
920;SDS011;447;51.332;6.778;2023-04-24T15:17:42;1.60;;;1.37;;
920;SDS011;447;51.332;6.778;2023-04-24T15:20:14;2.37;;;1.83;;
920;SDS011;447;51.332;6.778;2023-04-24T15:22:42;2.63;;;2.00;;
920;SDS011;447;51.332;6.778;2023-04-24T15:28:03;2.30;;;1.40;;
920;SDS011;447;51.332;6.778;2023-04-24T15:30:30;1.97;;;1.73;;
920;SDS011;447;51.332;6.778;2023-04-24T15:33:00;2.03;;;1.47;;
920;SDS011;447;51.332;6.778;2023-04-24T15:35:31;2.60;;;2.27;;
920;SDS011;447;51.332;6.778;2023-04-24T15:37:59;2.23;;;1.80;;
920;SDS011;447;51.332;6.778;2023-04-24T15:40:26;2.93;;;1.60;;
920;SDS011;447;51.332;6.778;2023-04-24T15:42:52;5.10;;;1.77;;
920;SDS011;447;51.332;6.778;2023-04-24T15:45:18;2.27;;;1.93;;
920;SDS011;447;51.332;6.778;2023-04-24T15:47:46;2.73;;;1.80;;
920;SDS011;447;51.332;6.778;2023-04-24T15:50:12;3.00;;;1.80;;
920;SDS011;447;51.332;6.778;2023-04-24T15:52:40;2.90;;;1.80;;
920;SDS011;447;51.332;6.778;2023-04-24T15:55:07;4.03;;;2.07;;
920;SDS011;447;51.332;6.778;2023-04-24T15:57:33;3.13;;;1.80;;
920;SDS011;447;51.332;6.778;2023-04-24T16:00:02;2.17;;;2.00;;
920;SDS011;447;51.332;6.778;2023-04-24T16:02:37;2.10;;;1.63;;
920;SDS011;447;51.332;6.778;2023-04-24T16:05:03;2.27;;;1.50;;
920;SDS011;447;51.332;6.778;2023-04-24T16:07:30;2.50;;;1.83;;
920;SDS011;447;51.332;6.778;2023-04-24T16:10:01;3.63;;;1.70;;
920;SDS011;447;51.332;6.778;2023-04-24T16:12:27;4.80;;;1.80;;
920;SDS011;447;51.332;6.778;2023-04-24T16:14:53;2.27;;;1.67;;
920;SDS011;447;51.332;6.778;2023-04-24T16:17:19;2.33;;;1.60;;
920;SDS011;447;51.332;6.778;2023-04-24T16:19:45;3.57;;;1.97;;
920;SDS011;447;51.332;6.778;2023-04-24T16:22:13;2.47;;;1.70;;
920;SDS011;447;51.332;6.778;2023-04-24T16:24:41;3.07;;;1.90;;
920;SDS011;447;51.332;6.778;2023-04-24T16:31:30;7.07;;;1.77;;
920;SDS011;447;51.332;6.778;2023-04-24T16:33:57;3.10;;;1.70;;
920;SDS011;447;51.332;6.778;2023-04-24T16:36:23;3.37;;;2.00;;
920;SDS011;447;51.332;6.778;2023-04-24T16:38:49;2.13;;;1.80;;